Time;durP1;ratioP1;P1;durP2;ratioP2;P2;SDS_P1;SDS_P2;PMS_P1;PMS_P2;Temp;Humidity;BMP_temperature;BMP_pressure;BME280_temperature;BME280_humidity;BME280_pressure;Samples;Min_cycle;Max_cycle;Signal;HPM_P1;HPM_P2
2021/10/19 00:02:03;;;;;;;15.13;7.00;;;10.10;85.00;;;;;;5021814;28;20188;-71
2021/10/19 00:04:28;;;;;;;8.50;6.82;;;10.10;85.00;;;;;;5026473;28;20180;-73
2021/10/19 00:06:54;;;;;;;7.18;6.45;;;10.10;85.00;;;;;;5022965;28;20203;-73
2021/10/19 00:09:20;;;;;;;10.20;7.47;;;10.10;85.10;;;;;;5026082;28;20219;-74
2021/10/19 00:11:45;;;;;;;10.45;7.57;;;10.10;85.20;;;;;;5024586;28;20203;-73
2021/10/19 00:14:11;;;;;;;9.20;7.20;;;10.10;85.20;;;;;;5026471;28;20574;-73
2021/10/19 00:16:36;;;;;;;9.65;7.05;;;10.10;85.30;;;;;;5025649;28;20188;-73
2021/10/19 00:19:04;;;;;;;11.88;7.20;;;10.10;85.40;;;;;;5024472;28;20935;-73
2021/10/19 00:21:30;;;;;;;7.85;7.13;;;10.10;85.40;;;;;;5025033;28;20181;-73
2021/10/19 00:23:55;;;;;;;10.60;7.78;;;10.10;85.40;;;;;;5025047;28;20215;-72
2021/10/19 00:26:21;;;;;;;9.52;7.35;;;10.10;85.50;;;;;;5023875;28;20203;-73
2021/10/19 00:28:47;;;;;;;8.73;7.00;;;10.10;85.50;;;;;;5026143;28;20222;-73
2021/10/19 00:31:12;;;;;;;8.82;7.00;;;10.10;85.40;;;;;;5023058;28;20188;-73
2021/10/19 00:33:38;;;;;;;8.15;6.07;;;10.10;85.40;;;;;;5026441;28;20176;-73
2021/10/19 00:36:04;;;;;;;15.68;7.55;;;10.10;85.50;;;;;;5022686;28;20295;-72
2021/10/19 00:38:30;;;;;;;8.27;6.97;;;10.10;85.50;;;;;;5022288;28;20180;-72
2021/10/19 00:40:55;;;;;;;11.70;7.20;;;10.10;85.50;;;;;;5025764;28;20238;-72
2021/10/19 00:43:21;;;;;;;8.48;6.78;;;10.00;85.70;;;;;;5025958;28;20184;-72
2021/10/19 00:45:47;;;;;;;10.73;6.97;;;10.00;85.80;;;;;;5021643;28;20279;-72
2021/10/19 00:48:16;;;;;;;7.78;6.25;;;10.00;85.80;;;;;;5025732;28;20188;-71
2021/10/19 00:50:43;;;;;;;8.02;6.57;;;10.00;85.80;;;;;;5022650;28;20227;-71
2021/10/19 00:53:08;;;;;;;12.63;6.97;;;9.90;86.00;;;;;;5025768;28;20650;-72
2021/10/19 00:55:34;;;;;;;9.15;7.10;;;9.90;86.10;;;;;;5024007;28;20212;-71
2021/10/19 00:58:01;;;;;;;12.55;7.05;;;9.80;86.20;;;;;;5022637;28;20246;-72
2021/10/19 01:00:27;;;;;;;8.40;6.30;;;9.80;86.20;;;;;;5020897;28;20192;-72
2021/10/19 01:02:53;;;;;;;7.30;6.53;;;9.80;86.60;;;;;;5024645;28;20263;-72
2021/10/19 01:05:20;;;;;;;7.72;6.72;;;9.70;86.80;;;;;;5024327;28;20296;-72
2021/10/19 01:07:46;;;;;;;8.95;7.15;;;9.70;86.90;;;;;;5024461;28;20250;-72
2021/10/19 01:10:12;;;;;;;7.80;7.03;;;9.60;87.10;;;;;;5024172;28;20219;-72
2021/10/19 01:12:39;;;;;;;9.00;7.00;;;9.60;87.30;;;;;;5023785;28;20187;-71
2021/10/19 01:15:10;;;;;;;9.38;6.68;;;9.50;87.50;;;;;;5022072;28;20188;-72
2021/10/19 01:17:50;;;;;;;9.05;6.70;;;9.50;87.60;;;;;;5022267;28;20202;-72
2021/10/19 01:20:33;;;;;;;6.30;5.68;;;9.50;87.70;;;;;;5024916;28;20680;-72
2021/10/19 01:23:00;;;;;;;8.85;6.22;;;9.40;87.80;;;;;;5026147;28;20187;-73
2021/10/19 01:25:28;;;;;;;8.43;6.03;;;9.40;87.80;;;;;;5023365;28;20563;-72
2021/10/19 01:28:04;;;;;;;8.75;5.97;;;9.40;87.80;;;;;;5024290;28;20180;-73
2021/10/19 01:30:31;;;;;;;6.43;5.82;;;9.30;87.80;;;;;;5024548;28;20631;-72
2021/10/19 01:32:57;;;;;;;9.70;6.43;;;9.30;87.60;;;;;;5021480;28;20176;-72
2021/10/19 01:35:35;;;;;;;6.90;6.13;;;9.30;87.40;;;;;;5023673;28;20192;-74
2021/10/19 01:38:01;;;;;;;7.82;6.00;;;9.30;87.20;;;;;;5022490;28;20190;-73
2021/10/19 01:40:28;;;;;;;5.43;4.93;;;9.20;87.00;;;;;;5022981;28;20238;-72
2021/10/19 01:42:53;;;;;;;11.30;5.43;;;9.20;87.00;;;;;;5022733;28;20189;-73
2021/10/19 01:45:20;;;;;;;8.48;5.30;;;9.10;86.80;;;;;;5023898;28;20184;-72
2021/10/19 01:47:45;;;;;;;6.90;5.05;;;9.10;86.80;;;;;;5022363;28;20669;-73
2021/10/19 01:50:13;;;;;;;5.63;4.93;;;9.10;86.60;;;;;;5039593;28;20211;-73
2021/10/19 01:52:40;;;;;;;5.53;5.05;;;9.10;86.60;;;;;;5029445;28;20215;-72
2021/10/19 01:55:07;;;;;;;6.47;5.88;;;9.10;86.40;;;;;;5025919;28;20180;-72
2021/10/19 01:57:34;;;;;;;4.75;4.35;;;9.00;86.40;;;;;;5029426;28;20179;-73
2021/10/19 02:00:01;;;;;;;5.65;4.85;;;9.00;86.30;;;;;;5029358;28;20667;-73
2021/10/19 02:02:27;;;;;;;5.40;4.97;;;9.00;86.20;;;;;;5026393;28;20638;-73
2021/10/19 02:04:53;;;;;;;4.93;4.38;;;9.00;86.10;;;;;;5026348;28;20720;-72
2021/10/19 02:07:19;;;;;;;6.60;4.95;;;9.00;85.90;;;;;;5029747;28;20542;-72
2021/10/19 02:09:45;;;;;;;4.82;4.43;;;9.00;86.00;;;;;;5023367;28;20648;-73
2021/10/19 02:12:11;;;;;;;4.47;4.07;;;8.90;86.00;;;;;;5025912;28;20180;-72
2021/10/19 02:14:36;;;;;;;5.13;4.22;;;8.90;86.30;;;;;;5025965;28;20185;-72
2021/10/19 02:17:02;;;;;;;6.88;5.05;;;8.90;86.70;;;;;;5029199;28;20673;-73
2021/10/19 02:19:29;;;;;;;6.53;4.47;;;8.90;86.70;;;;;;5027637;28;20188;-72
2021/10/19 02:21:56;;;;;;;7.40;5.53;;;8.80;86.80;;;;;;5029091;28;20176;-72
2021/10/19 02:24:22;;;;;;;6.28;5.63;;;8.80;87.20;;;;;;5026439;28;20187;-73
2021/10/19 02:26:48;;;;;;;7.70;6.05;;;8.70;87.40;;;;;;5026697;28;20603;-73
2021/10/19 02:29:19;;;;;;;7.72;6.00;;;8.70;87.30;;;;;;5022656;28;20217;-72
2021/10/19 02:31:46;;;;;;;6.23;5.60;;;8.60;87.30;;;;;;5027885;28;20181;-72
2021/10/19 02:34:15;;;;;;;8.97;5.90;;;8.60;87.20;;;;;;5029619;28;20192;-73
2021/10/19 02:36:41;;;;;;;9.75;6.40;;;8.60;87.40;;;;;;5026048;28;20271;-72
2021/10/19 02:39:07;;;;;;;12.35;6.45;;;8.50;87.40;;;;;;5027686;28;20287;-72
2021/10/19 02:41:34;;;;;;;7.03;5.67;;;8.50;87.50;;;;;;5029370;28;20183;-72
2021/10/19 02:44:00;;;;;;;6.67;4.80;;;8.50;87.50;;;;;;5028608;28;20184;-72
2021/10/19 02:46:26;;;;;;;7.37;5.00;;;8.40;87.50;;;;;;5027214;28;20184;-72
2021/10/19 02:48:52;;;;;;;6.23;4.70;;;8.40;87.50;;;;;;5027008;28;20574;-72
2021/10/19 02:51:19;;;;;;;5.27;4.87;;;8.40;87.40;;;;;;5027362;28;20184;-72
2021/10/19 02:53:45;;;;;;;7.77;4.87;;;8.40;87.50;;;;;;5026697;28;20259;-72
2021/10/19 02:56:11;;;;;;;5.53;4.95;;;8.40;87.70;;;;;;5027816;28;20184;-72
2021/10/19 02:58:37;;;;;;;6.23;4.27;;;8.30;87.70;;;;;;5024759;28;20192;-73
2021/10/19 03:01:03;;;;;;;6.10;4.80;;;8.30;87.80;;;;;;5026339;28;20176;-72
2021/10/19 03:03:28;;;;;;;6.13;4.43;;;8.20;87.90;;;;;;5026327;28;20184;-72
2021/10/19 03:05:55;;;;;;;6.53;4.40;;;8.20;88.10;;;;;;5022449;28;20184;-72
2021/10/19 03:08:21;;;;;;;8.53;5.00;;;8.20;88.10;;;;;;5021865;28;20188;-72
2021/10/19 03:10:47;;;;;;;5.37;4.83;;;8.10;88.30;;;;;;5030072;28;21046;-72
2021/10/19 03:13:13;;;;;;;5.38;4.75;;;8.10;88.30;;;;;;5028708;28;20197;-72
2021/10/19 03:15:38;;;;;;;9.47;5.47;;;8.00;88.50;;;;;;5026351;28;20191;-72
2021/10/19 03:18:04;;;;;;;7.07;4.80;;;8.00;88.70;;;;;;5025603;28;20693;-73
2021/10/19 03:20:30;;;;;;;8.73;4.73;;;8.00;88.60;;;;;;5027935;28;20194;-72
2021/10/19 03:22:56;;;;;;;7.17;4.57;;;7.90;88.70;;;;;;5026154;28;20721;-73
2021/10/19 03:25:22;;;;;;;12.97;5.17;;;7.90;88.90;;;;;;5024013;28;20378;-72
2021/10/19 03:27:48;;;;;;;6.93;5.27;;;7.90;88.90;;;;;;5028091;28;20271;-76
2021/10/19 03:30:13;;;;;;;4.70;4.23;;;7.80;88.90;;;;;;5025492;28;20244;-74
2021/10/19 03:32:39;;;;;;;5.80;4.13;;;7.80;89.00;;;;;;5025616;28;20193;-77
2021/10/19 03:35:05;;;;;;;6.03;4.70;;;7.80;89.10;;;;;;5024272;28;20681;-78
2021/10/19 03:37:31;;;;;;;6.20;4.97;;;7.80;89.20;;;;;;5028018;28;20273;-73
2021/10/19 03:39:57;;;;;;;4.83;4.43;;;7.80;89.30;;;;;;5025200;28;20689;-73
2021/10/19 03:42:22;;;;;;;8.90;4.80;;;7.70;89.30;;;;;;5025392;28;20187;-73
2021/10/19 03:44:48;;;;;;;4.47;4.07;;;7.70;89.40;;;;;;5024753;28;20180;-73
2021/10/19 03:47:14;;;;;;;6.93;5.03;;;7.70;89.30;;;;;;5023889;28;20741;-73
2021/10/19 03:49:39;;;;;;;5.10;4.67;;;7.60;89.40;;;;;;5027877;28;20211;-73
2021/10/19 03:52:05;;;;;;;5.13;4.67;;;7.50;89.70;;;;;;5028647;28;20714;-71
2021/10/19 03:54:31;;;;;;;6.77;4.77;;;7.50;90.00;;;;;;5026425;28;20276;-72
2021/10/19 03:56:57;;;;;;;6.90;4.93;;;7.50;90.00;;;;;;5025882;28;20184;-73
2021/10/19 03:59:22;;;;;;;6.17;4.63;;;7.50;90.20;;;;;;5026045;28;20295;-72
2021/10/19 04:01:48;;;;;;;6.97;5.40;;;7.40;90.30;;;;;;5024942;28;20188;-73
2021/10/19 04:04:14;;;;;;;5.40;4.83;;;7.40;90.30;;;;;;5024824;28;20185;-73
2021/10/19 04:06:40;;;;;;;7.97;5.13;;;7.40;90.30;;;;;;5022132;28;20184;-75
2021/10/19 04:09:06;;;;;;;8.90;5.27;;;7.30;90.50;;;;;;5023078;28;20220;-74
2021/10/19 04:11:31;;;;;;;7.70;4.90;;;7.40;90.70;;;;;;5025414;28;20230;-74
2021/10/19 04:13:57;;;;;;;4.73;4.37;;;7.30;90.60;;;;;;5024875;28;20184;-74
2021/10/19 04:16:23;;;;;;;6.40;4.90;;;7.30;90.80;;;;;;5022645;28;20207;-75
2021/10/19 04:18:49;;;;;;;5.57;3.87;;;7.30;90.80;;;;;;5023849;28;20196;-74
2021/10/19 04:21:15;;;;;;;7.17;4.43;;;7.30;90.90;;;;;;5022382;28;20181;-74
2021/10/19 04:23:41;;;;;;;4.30;3.90;;;7.30;91.00;;;;;;5026608;28;20204;-75
2021/10/19 04:26:07;;;;;;;3.97;3.57;;;7.30;91.00;;;;;;5055147;28;20195;-75
2021/10/19 04:28:33;;;;;;;4.40;3.83;;;7.30;91.00;;;;;;5024732;28;20200;-75
2021/10/19 04:30:59;;;;;;;5.43;4.07;;;7.30;91.00;;;;;;5024889;28;20258;-75
2021/10/19 04:33:25;;;;;;;6.87;3.50;;;7.30;91.10;;;;;;5026480;28;20177;-72
2021/10/19 04:35:50;;;;;;;3.97;3.67;;;7.30;91.20;;;;;;5022921;28;20242;-74
2021/10/19 04:38:16;;;;;;;8.10;3.87;;;7.20;91.20;;;;;;5022284;28;20180;-74
2021/10/19 04:40:42;;;;;;;3.27;2.90;;;7.20;91.20;;;;;;5023137;28;20192;-74
2021/10/19 04:43:08;;;;;;;4.50;3.60;;;7.20;91.10;;;;;;5026545;28;20645;-74
2021/10/19 04:45:34;;;;;;;4.20;3.57;;;7.30;90.90;;;;;;5022922;28;20180;-75
2021/10/19 04:48:02;;;;;;;3.67;3.23;;;7.20;90.70;;;;;;5023878;28;20202;-72
2021/10/19 04:50:29;;;;;;;3.63;3.43;;;7.20;90.90;;;;;;5024458;28;20302;-72
2021/10/19 04:52:55;;;;;;;3.80;3.50;;;7.20;90.90;;;;;;5021208;28;20188;-73
2021/10/19 04:55:21;;;;;;;5.03;4.20;;;7.20;90.80;;;;;;5024149;28;20183;-75
2021/10/19 04:57:47;;;;;;;8.93;5.27;;;7.20;91.00;;;;;;5022018;28;20279;-76
2021/10/19 05:00:13;;;;;;;6.50;5.70;;;7.10;91.10;;;;;;5026421;28;20180;-75
2021/10/19 05:02:47;;;;;;;10.43;6.57;;;7.10;91.00;;;;;;5024792;28;20196;-75
2021/10/19 05:05:14;;;;;;;10.27;6.53;;;7.10;91.00;;;;;;5021953;28;20724;-75
2021/10/19 05:07:40;;;;;;;13.90;7.67;;;7.10;91.30;;;;;;5024353;28;20686;-75
2021/10/19 05:10:06;;;;;;;8.83;7.40;;;7.10;91.50;;;;;;5021258;28;20220;-76
2021/10/19 05:12:32;;;;;;;6.60;6.00;;;7.10;91.50;;;;;;5025695;28;20656;-76
2021/10/19 05:14:58;;;;;;;9.73;6.60;;;7.10;91.50;;;;;;5024079;28;20195;-76
2021/10/19 05:17:23;;;;;;;19.30;7.87;;;7.10;91.60;;;;;;5020492;28;20200;-76
2021/10/19 05:19:49;;;;;;;14.10;8.67;;;7.10;91.60;;;;;;5021740;28;20191;-75
2021/10/19 05:22:15;;;;;;;9.70;7.93;;;7.20;91.60;;;;;;5023499;28;20195;-75
2021/10/19 05:24:41;;;;;;;10.97;8.70;;;7.20;91.50;;;;;;5025081;28;20187;-75
2021/10/19 05:27:07;;;;;;;16.30;9.67;;;7.20;91.30;;;;;;5019876;28;20193;-75
2021/10/19 05:29:32;;;;;;;11.97;8.57;;;7.20;91.30;;;;;;5022216;28;20648;-67
2021/10/19 05:31:58;;;;;;;12.77;9.33;;;7.20;91.50;;;;;;5021090;28;20180;-68
2021/10/19 05:34:24;;;;;;;13.80;9.33;;;7.20;91.50;;;;;;5023045;28;20687;-69
2021/10/19 05:36:50;;;;;;;9.73;7.97;;;7.20;91.60;;;;;;5025424;28;20180;-68
2021/10/19 05:39:17;;;;;;;12.70;8.40;;;7.30;91.60;;;;;;5020864;28;20200;-72
2021/10/19 05:41:43;;;;;;;16.13;8.63;;;7.30;91.60;;;;;;5019237;28;20576;-72
2021/10/19 05:44:09;;;;;;;13.50;8.63;;;7.30;91.50;;;;;;5022209;28;20199;-73
2021/10/19 05:46:34;;;;;;;16.17;7.73;;;7.40;91.60;;;;;;5022505;28;20557;-73
2021/10/19 05:49:00;;;;;;;8.43;7.33;;;7.40;91.60;;;;;;5025954;28;20305;-75
2021/10/19 05:51:26;;;;;;;10.07;6.90;;;7.50;91.50;;;;;;5025444;28;20184;-74
2021/10/19 05:53:51;;;;;;;10.27;7.00;;;7.50;91.50;;;;;;5024661;28;20195;-73
2021/10/19 05:56:17;;;;;;;11.70;8.23;;;7.50;91.50;;;;;;5026068;28;20711;-73
2021/10/19 05:58:43;;;;;;;12.77;7.10;;;7.60;91.50;;;;;;5025855;28;20214;-74
2021/10/19 06:01:09;;;;;;;10.97;7.57;;;7.60;91.40;;;;;;5027447;28;20188;-73
2021/10/19 06:03:35;;;;;;;13.27;7.70;;;7.70;91.40;;;;;;5025780;28;20239;-73
2021/10/19 06:06:00;;;;;;;17.30;9.30;;;7.70;91.30;;;;;;5023068;28;20184;-73
2021/10/19 06:08:26;;;;;;;15.63;8.60;;;7.80;91.20;;;;;;5026195;28;20184;-73
2021/10/19 06:10:55;;;;;;;11.77;9.33;;;7.90;91.00;;;;;;5024718;28;20195;-73
2021/10/19 06:13:21;;;;;;;11.60;8.00;;;7.90;91.00;;;;;;5025677;28;20176;-73
2021/10/19 06:15:47;;;;;;;12.40;8.73;;;8.00;90.90;;;;;;5024600;28;20189;-73
2021/10/19 06:18:13;;;;;;;15.67;8.90;;;8.00;90.90;;;;;;5023790;28;20184;-73
2021/10/19 06:20:39;;;;;;;12.57;8.97;;;8.10;90.80;;;;;;5025108;28;20204;-74
2021/10/19 06:23:04;;;;;;;12.17;8.23;;;8.20;90.80;;;;;;5026712;28;20270;-73
2021/10/19 06:25:30;;;;;;;16.03;8.80;;;8.20;90.80;;;;;;5024759;28;20246;-73
2021/10/19 06:27:56;;;;;;;10.80;8.80;;;8.30;90.70;;;;;;5025414;28;20184;-74
2021/10/19 06:30:21;;;;;;;15.17;9.17;;;8.40;90.70;;;;;;5024806;28;20657;-73
2021/10/19 06:32:47;;;;;;;13.97;9.30;;;8.50;90.80;;;;;;5026563;28;20199;-74
2021/10/19 06:35:13;;;;;;;12.00;9.07;;;8.50;90.90;;;;;;5025447;28;20250;-74
2021/10/19 06:37:39;;;;;;;20.20;9.23;;;8.60;90.90;;;;;;5029616;28;20195;-73
2021/10/19 06:40:07;;;;;;;19.13;10.10;;;8.70;90.90;;;;;;5031524;28;20296;-73
2021/10/19 06:42:33;;;;;;;13.00;9.10;;;8.80;90.70;;;;;;5028230;28;20211;-73
2021/10/19 06:45:01;;;;;;;14.90;9.00;;;8.90;90.70;;;;;;5027829;28;20278;-73
2021/10/19 06:47:31;;;;;;;12.93;8.47;;;9.00;90.60;;;;;;5027296;28;20586;-73
2021/10/19 06:49:57;;;;;;;13.23;8.90;;;9.10;90.50;;;;;;5027118;28;20252;-73
2021/10/19 06:52:23;;;;;;;14.93;9.60;;;9.20;90.50;;;;;;5027786;28;20192;-73
2021/10/19 06:54:49;;;;;;;17.75;10.30;;;9.30;90.50;;;;;;5025044;28;20238;-73
2021/10/19 06:57:14;;;;;;;16.20;8.77;;;9.50;90.10;;;;;;5027219;28;20190;-73
2021/10/19 06:59:40;;;;;;;14.55;9.18;;;9.70;89.70;;;;;;5026688;28;20184;-74
2021/10/19 07:02:06;;;;;;;12.18;8.30;;;9.90;90.10;;;;;;5026915;28;20270;-74
2021/10/19 07:04:31;;;;;;;15.60;9.82;;;10.30;90.10;;;;;;5026217;28;20189;-73
2021/10/19 07:06:57;;;;;;;13.02;9.60;;;10.80;89.90;;;;;;5026582;28;20199;-74
2021/10/19 07:09:23;;;;;;;14.13;9.20;;;11.50;89.30;;;;;;5025638;28;20684;-74
2021/10/19 07:11:49;;;;;;;14.93;9.38;;;12.30;88.50;;;;;;5025961;28;20265;-73
2021/10/19 07:14:15;;;;;;;17.40;10.25;;;13.20;87.70;;;;;;5027386;28;20323;-74
2021/10/19 07:16:40;;;;;;;15.05;9.55;;;14.10;85.30;;;;;;5026990;28;20221;-74
2021/10/19 07:19:09;;;;;;;15.27;10.27;;;15.00;82.50;;;;;;5028884;28;20198;-73
2021/10/19 07:21:39;;;;;;;13.77;9.75;;;15.80;80.50;;;;;;5026911;28;20176;-72
2021/10/19 07:24:05;;;;;;;16.20;10.45;;;16.70;77.50;;;;;;5028910;28;20270;-74
2021/10/19 07:26:32;;;;;;;20.50;11.80;;;17.50;72.60;;;;;;5029216;28;20204;-74
2021/10/19 07:28:58;;;;;;;14.50;10.63;;;18.10;72.10;;;;;;5026608;28;20208;-74
2021/10/19 07:31:24;;;;;;;15.98;10.30;;;18.70;70.20;;;;;;5026133;28;20271;-74
2021/10/19 07:33:50;;;;;;;13.07;9.98;;;19.30;68.40;;;;;;5028642;28;20199;-74
2021/10/19 07:36:15;;;;;;;16.15;11.00;;;19.70;67.30;;;;;;5028613;28;20263;-73
2021/10/19 07:38:41;;;;;;;11.35;9.43;;;20.20;66.60;;;;;;5028227;28;20195;-74
2021/10/19 07:41:07;;;;;;;11.02;9.02;;;20.80;65.70;;;;;;5028672;28;20716;-73
2021/10/19 07:43:32;;;;;;;15.82;9.70;;;21.30;65.10;;;;;;5027685;28;20322;-73
2021/10/19 07:45:58;;;;;;;16.48;11.93;;;21.80;63.10;;;;;;5027544;28;20191;-74
2021/10/19 07:48:24;;;;;;;11.40;9.10;;;22.30;63.20;;;;;;5026517;28;20203;-74
2021/10/19 07:50:49;;;;;;;14.50;8.98;;;22.70;62.30;;;;;;5026248;28;20266;-74
2021/10/19 07:53:16;;;;;;;11.52;9.68;;;23.20;61.20;;;;;;5026593;28;20681;-73
2021/10/19 07:55:43;;;;;;;14.27;10.27;;;23.70;61.50;;;;;;5026820;28;20180;-72
2021/10/19 07:58:09;;;;;;;13.05;9.85;;;24.10;60.70;;;;;;5025799;28;20185;-73
2021/10/19 08:00:35;;;;;;;12.25;10.10;;;24.50;59.00;;;;;;5027176;28;20716;-73
2021/10/19 08:03:02;;;;;;;11.15;9.70;;;24.90;59.00;;;;;;5026627;28;20188;-73
2021/10/19 08:05:31;;;;;;;16.48;9.23;;;25.20;57.60;;;;;;5027723;28;20176;-74
2021/10/19 08:08:10;;;;;;;11.80;9.40;;;25.30;57.80;;;;;;5026420;28;20184;-73
2021/10/19 08:10:38;;;;;;;15.25;9.75;;;25.20;56.10;;;;;;5026952;28;20212;-74
2021/10/19 08:13:04;;;;;;;10.35;8.43;;;25.30;57.40;;;;;;5025146;28;20188;-74
2021/10/19 08:15:30;;;;;;;9.88;8.88;;;25.70;57.70;;;;;;5025084;28;20207;-74
2021/10/19 08:17:55;;;;;;;10.00;8.63;;;26.10;57.40;;;;;;5025825;28;20180;-74
2021/10/19 08:20:22;;;;;;;8.35;7.18;;;26.50;56.70;;;;;;5024888;28;20905;-73
2021/10/19 08:22:48;;;;;;;7.72;6.95;;;26.80;55.60;;;;;;5023921;28;20190;-74
2021/10/19 08:25:15;;;;;;;6.18;5.57;;;27.00;55.60;;;;;;5023926;28;20643;-74
2021/10/19 08:27:43;;;;;;;6.82;6.20;;;27.30;55.90;;;;;;5025293;28;20580;-74
2021/10/19 08:30:11;;;;;;;7.03;5.90;;;27.60;54.40;;;;;;5022558;28;20709;-75
2021/10/19 08:32:37;;;;;;;7.93;7.15;;;27.80;52.70;;;;;;5024858;28;20188;-73
2021/10/19 08:35:03;;;;;;;7.15;6.25;;;27.90;54.80;;;;;;5026619;28;20200;-74
2021/10/19 08:37:29;;;;;;;7.00;6.35;;;28.20;54.50;;;;;;5027798;28;20191;-73
2021/10/19 08:39:55;;;;;;;7.65;6.57;;;28.40;54.00;;;;;;5025944;28;20192;-73
2021/10/19 08:42:21;;;;;;;8.43;5.97;;;28.60;54.30;;;;;;5024607;28;20183;-73
2021/10/19 08:44:47;;;;;;;5.85;5.35;;;28.90;51.90;;;;;;5025581;28;20275;-74
2021/10/19 08:47:13;;;;;;;7.22;5.68;;;29.20;52.80;;;;;;5026057;28;20682;-73
2021/10/19 08:49:39;;;;;;;6.60;5.53;;;29.20;52.80;;;;;;5025097;28;20228;-74
2021/10/19 08:52:05;;;;;;;5.00;4.70;;;29.50;52.50;;;;;;5025321;28;20196;-74
2021/10/19 08:54:30;;;;;;;5.93;5.43;;;29.90;52.60;;;;;;5023174;28;20185;-73
2021/10/19 08:56:56;;;;;;;5.65;5.25;;;30.40;51.90;;;;;;5021964;28;20732;-74
2021/10/19 08:59:23;;;;;;;5.65;5.20;;;30.70;52.10;;;;;;5023780;28;20716;-74
2021/10/19 09:01:54;;;;;;;6.32;5.82;;;31.10;49.70;;;;;;5025447;28;20180;-74
2021/10/19 09:04:20;;;;;;;5.90;5.00;;;31.30;49.60;;;;;;5027576;28;20200;-74
2021/10/19 09:06:46;;;;;;;5.10;4.70;;;31.70;50.80;;;;;;5024365;28;20279;-74
2021/10/19 09:09:20;;;;;;;5.13;4.63;;;32.00;49.90;;;;;;5024637;28;20290;-74
2021/10/19 09:11:48;;;;;;;5.10;4.75;;;32.30;50.00;;;;;;5024022;28;20237;-71
2021/10/19 09:14:16;;;;;;;5.97;4.97;;;32.60;49.20;;;;;;5022802;28;20180;-76
2021/10/19 09:16:51;;;;;;;4.90;4.57;;;32.80;49.70;;;;;;5026047;28;20183;-75
2021/10/19 09:19:22;;;;;;;5.72;5.25;;;33.00;48.80;;;;;;5024613;28;20203;-76
2021/10/19 09:21:59;;;;;;;5.40;5.10;;;33.00;47.90;;;;;;5023228;28;20187;-75
2021/10/19 09:24:28;;;;;;;5.53;5.13;;;33.00;48.50;;;;;;5024814;28;20184;-75
2021/10/19 09:26:57;;;;;;;5.43;5.03;;;32.60;43.50;;;;;;5025431;28;20176;-75
2021/10/19 09:29:24;;;;;;;10.30;5.32;;;32.20;49.50;;;;;;5023084;28;20184;-76
2021/10/19 09:31:54;;;;;;;8.23;4.95;;;32.10;44.80;;;;;;5021788;28;20685;-75
2021/10/19 09:34:21;;;;;;;6.00;4.30;;;32.00;47.90;;;;;;5021828;28;20312;-75
2021/10/19 09:36:49;;;;;;;4.22;3.97;;;31.80;49.00;;;;;;5022734;28;20192;-76
2021/10/19 09:39:26;;;;;;;4.18;3.97;;;31.80;48.50;;;;;;5021623;28;20212;-75
2021/10/19 09:41:52;;;;;;;4.00;3.70;;;32.00;48.80;;;;;;5021958;28;20187;-76
2021/10/19 09:44:17;;;;;;;5.00;4.20;;;32.30;48.90;;;;;;5021011;28;20176;-76
2021/10/19 09:46:43;;;;;;;4.15;3.95;;;32.50;48.00;;;;;;5022193;28;20202;-75
2021/10/19 09:49:09;;;;;;;4.43;3.47;;;32.70;45.10;;;;;;5021666;28;20707;-76
2021/10/19 09:51:38;;;;;;;4.03;3.72;;;33.00;48.20;;;;;;5021646;28;20221;-76
2021/10/19 09:54:08;;;;;;;4.28;3.97;;;33.40;47.70;;;;;;5021635;28;20180;-76
2021/10/19 09:56:39;;;;;;;4.05;3.85;;;33.60;45.90;;;;;;5022558;28;20606;-75
2021/10/19 09:59:06;;;;;;;4.78;4.47;;;32.90;45.90;;;;;;5023328;28;20211;-76
2021/10/19 10:01:33;;;;;;;4.43;4.13;;;31.50;45.50;;;;;;5023322;28;20184;-76
2021/10/19 10:04:00;;;;;;;4.40;4.20;;;29.80;45.00;;;;;;5021270;28;20185;-76
2021/10/19 10:06:26;;;;;;;4.18;3.75;;;28.10;46.80;;;;;;5023758;28;20180;-75
2021/10/19 10:08:53;;;;;;;4.57;4.35;;;26.80;48.50;;;;;;5024659;28;20295;-76
2021/10/19 10:11:20;;;;;;;4.20;4.07;;;25.60;48.40;;;;;;5024177;28;20268;-76
2021/10/19 10:13:57;;;;;;;4.07;3.78;;;24.90;53.10;;;;;;5026178;28;20234;-75
2021/10/19 10:16:23;;;;;;;4.20;3.90;;;24.20;51.20;;;;;;5028009;28;20204;-75
2021/10/19 10:18:49;;;;;;;3.50;3.40;;;23.90;55.70;;;;;;5027097;28;20278;-75
2021/10/19 10:21:17;;;;;;;3.53;3.35;;;23.90;55.40;;;;;;5026926;28;20554;-75
2021/10/19 10:23:43;;;;;;;4.03;3.75;;;24.10;55.40;;;;;;5024869;28;20241;-76
2021/10/19 10:26:21;;;;;;;3.72;3.53;;;24.20;53.70;;;;;;5027103;28;20195;-75
2021/10/19 10:28:47;;;;;;;3.72;3.53;;;24.50;52.30;;;;;;5028007;28;20688;-76
2021/10/19 10:31:22;;;;;;;4.25;3.95;;;25.00;53.10;;;;;;5025802;28;20263;-73
2021/10/19 10:34:06;;;;;;;4.57;2.75;;;25.60;48.80;;;;;;5027860;28;20188;-75
2021/10/19 10:36:38;;;;;;;3.90;3.53;;;26.40;49.60;;;;;;5021201;28;20277;-74
2021/10/19 10:39:06;;;;;;;4.00;3.80;;;27.30;51.60;;;;;;5022425;28;20226;-74
2021/10/19 10:41:43;;;;;;;3.85;3.65;;;28.20;49.60;;;;;;5024248;28;20264;-75
2021/10/19 10:44:12;;;;;;;3.30;3.13;;;29.10;48.10;;;;;;5024360;28;20187;-74
2021/10/19 10:46:40;;;;;;;9.63;4.22;;;29.70;49.20;;;;;;5021991;28;20713;-73
2021/10/19 10:49:11;;;;;;;3.67;3.47;;;30.30;48.20;;;;;;5028005;28;20706;-73
2021/10/19 10:51:38;;;;;;;4.40;4.10;;;30.90;47.00;;;;;;5024306;28;20764;-74
2021/10/19 10:54:05;;;;;;;3.70;3.40;;;31.00;44.30;;;;;;5023298;28;20192;-74
2021/10/19 10:56:41;;;;;;;3.75;3.45;;;30.90;44.80;;;;;;5027752;28;20946;-74
2021/10/19 10:59:07;;;;;;;3.70;3.53;;;31.10;46.40;;;;;;5024770;28;20296;-74
2021/10/19 11:01:33;;;;;;;3.58;3.42;;;31.20;47.80;;;;;;5027410;28;20641;-73
2021/10/19 11:04:10;;;;;;;3.42;3.33;;;31.20;44.40;;;;;;5025587;28;20180;-74
2021/10/19 11:06:40;;;;;;;3.90;3.80;;;31.00;43.30;;;;;;5025951;28;20180;-74
2021/10/19 11:09:11;;;;;;;3.85;3.75;;;30.70;46.40;;;;;;5022991;28;20196;-74
2021/10/19 11:11:39;;;;;;;4.18;3.25;;;30.80;47.00;;;;;;5024635;28;20225;-74
2021/10/19 11:14:15;;;;;;;4.55;4.28;;;31.00;46.30;;;;;;5021378;28;20184;-74
2021/10/19 11:16:55;;;;;;;4.15;3.85;;;31.40;47.20;;;;;;5025730;28;20195;-74
2021/10/19 11:19:24;;;;;;;3.70;3.47;;;31.70;44.50;;;;;;5025863;28;20227;-74
2021/10/19 11:21:52;;;;;;;4.05;3.88;;;31.90;43.00;;;;;;5025856;28;20177;-75
2021/10/19 11:24:19;;;;;;;3.83;3.72;;;32.00;45.60;;;;;;5027169;28;20808;-75
2021/10/19 11:26:46;;;;;;;3.65;3.55;;;32.00;45.40;;;;;;5025979;28;20188;-74
2021/10/19 11:29:12;;;;;;;3.58;3.47;;;31.50;44.40;;;;;;5027620;28;20188;-72
2021/10/19 11:31:38;;;;;;;4.10;3.78;;;30.60;45.60;;;;;;5027369;28;20184;-74
2021/10/19 11:34:05;;;;;;;3.33;3.13;;;29.70;47.60;;;;;;5025678;28;20283;-74
2021/10/19 11:36:31;;;;;;;3.58;3.35;;;28.90;49.20;;;;;;5023083;28;20187;-73
2021/10/19 11:38:59;;;;;;;4.18;3.88;;;28.50;49.50;;;;;;5025194;28;20597;-74
2021/10/19 11:41:28;;;;;;;3.60;3.40;;;28.40;50.20;;;;;;5025795;28;20291;-73
2021/10/19 11:44:01;;;;;;;2.92;2.83;;;28.60;50.20;;;;;;5025992;28;20195;-73
2021/10/19 11:46:31;;;;;;;3.05;2.92;;;29.00;48.20;;;;;;5026250;28;20188;-74
2021/10/19 11:49:01;;;;;;;2.53;2.17;;;29.40;47.30;;;;;;5024586;28;20185;-74
2021/10/19 11:51:28;;;;;;;2.70;2.60;;;29.90;48.70;;;;;;5024517;28;20187;-74
2021/10/19 11:53:59;;;;;;;3.20;3.00;;;30.40;47.50;;;;;;5025718;28;20565;-74
2021/10/19 11:56:27;;;;;;;2.42;2.33;;;30.40;46.90;;;;;;5027191;28;20563;-74
2021/10/19 11:58:55;;;;;;;3.10;3.00;;;30.30;47.30;;;;;;5022848;28;20698;-72
2021/10/19 12:01:22;;;;;;;2.83;2.72;;;30.10;46.40;;;;;;5025145;28;20252;-74
2021/10/19 12:03:59;;;;;;;2.88;2.78;;;29.40;43.70;;;;;;5025711;28;20237;-74
2021/10/19 12:06:27;;;;;;;3.03;2.88;;;28.60;47.00;;;;;;5025083;28;20245;-74
2021/10/19 12:08:53;;;;;;;3.38;3.20;;;28.50;48.70;;;;;;5023275;28;20284;-74
2021/10/19 12:11:23;;;;;;;2.72;2.60;;;28.30;47.70;;;;;;5022921;28;20203;-74
2021/10/19 12:13:59;;;;;;;2.85;2.75;;;28.10;48.90;;;;;;5024722;28;20188;-74
2021/10/19 12:16:30;;;;;;;3.13;2.92;;;28.20;47.40;;;;;;5021588;28;20188;-74
2021/10/19 12:18:57;;;;;;;3.15;2.95;;;28.40;45.20;;;;;;5026727;28;20710;-74
2021/10/19 12:21:25;;;;;;;3.28;3.08;;;28.60;45.40;;;;;;5026234;28;20180;-74
2021/10/19 12:23:57;;;;;;;3.20;3.00;;;28.40;47.40;;;;;;5027075;28;20188;-74
2021/10/19 12:26:25;;;;;;;3.05;2.85;;;28.30;46.90;;;;;;5025981;28;20694;-74
2021/10/19 12:28:53;;;;;;;3.03;2.83;;;28.10;47.00;;;;;;5026510;28;20180;-74
2021/10/19 12:31:20;;;;;;;6.63;3.03;;;28.10;49.90;;;;;;5025797;28;20263;-73
2021/10/19 12:34:00;;;;;;;3.08;2.88;;;28.30;48.90;;;;;;5023709;28;20199;-74
2021/10/19 12:36:29;;;;;;;1.92;1.92;;;28.50;46.90;;;;;;5025278;28;20298;-75
2021/10/19 12:39:00;;;;;;;2.40;2.38;;;28.70;48.00;;;;;;5024231;28;20208;-75
2021/10/19 12:41:31;;;;;;;2.90;2.63;;;29.00;47.90;;;;;;5026876;28;20662;-75
2021/10/19 12:43:58;;;;;;;2.78;2.58;;;29.20;47.60;;;;;;5023427;28;20184;-74
2021/10/19 12:46:25;;;;;;;2.75;2.60;;;29.40;48.20;;;;;;5025352;28;20647;-74
2021/10/19 12:48:54;;;;;;;2.63;2.53;;;29.30;45.20;;;;;;5022712;28;20931;-74